Flight Track Log - Related Links

Times and Time Zones

All times are in EDT time to prevent confusion due to time zone crossing. See the SWA896 flight status page for this flight to view local times or setup timezone preferences in your user account.

Time Position Orientation Groundspeed Altitude Reporting Facility
EDT Latitude Longitude Course Direction KTS MPH feet Rate Location/Type
Tue 08:08:52 AM 42.9167 -78.7500 216° Southwest 139 160 2,500  Level Buffalo TRACON
Tue 08:09:53 AM 42.8833 -78.7833 216° Southwest 192 221 3,900 1,714 Climbing Buffalo TRACON
Tue 08:10:51 AM 42.8364 -78.8108 203° Southwest 231 266 5,900 2,644 Climbing Cleveland Center
Tue 08:11:51 AM 42.7681 -78.8411 198° South 247 284 9,100 2,850 Climbing Cleveland Center
Tue 08:12:51 AM 42.6997 -78.8769 201° Southwest 253 291 11,600 2,550 Climbing Cleveland Center
Tue 08:13:51 AM 42.6275 -78.9128 200° South 270 311 14,200 2,100 Climbing Cleveland Center
Tue 08:14:51 AM 42.5486 -78.9514 200° South 281 323 15,800 1,700 Climbing Cleveland Center
Tue 08:15:51 AM 42.4597 -78.9931 199° South 318 366 17,600 1,700 Climbing Cleveland Center
Tue 08:16:51 AM 42.3625 -79.0433 201° Southwest 353 406 19,200 1,700 Climbing Cleveland Center
Tue 08:17:51 AM 42.2822 -79.1239 217° Southwest 370 426 21,000 1,850 Climbing Cleveland Center
Tue 08:18:51 AM 42.2817 -79.2669 270° West 327 376 22,900 2,000 Climbing Cleveland Center
Tue 08:19:51 AM 42.2811 -79.4044 270° West 346 398 25,000 2,300 Climbing Cleveland Center
Tue 08:20:51 AM 42.2806 -79.5561 270° West 363 418 27,500 1,900 Climbing Cleveland Center
Tue 08:21:51 AM 42.2797 -79.6881 270° West 363 418 28,800 1,200 Climbing Cleveland Center
Tue 08:22:51 AM 42.2744 -79.8228 267° West 363 418 29,900 2,600 Climbing Cleveland Center
Tue 08:23:51 AM 42.2731 -79.9575 269° West 363 418 34,000 1,000 Climbing Cleveland Center
Tue 08:24:51 AM 42.2694 -80.0781 268° West 363 418 31,900 -450 Descending Cleveland Center
Tue 08:25:51 AM 42.2658 -80.2239 268° West 363 418 33,100 900 Climbing Cleveland Center
Tue 08:26:51 AM 42.2619 -80.3586 268° West 358 412 33,700 450 Climbing Cleveland Center
Tue 08:27:51 AM 42.2600 -80.4878 269° West 363 418 34,000 150 Climbing Cleveland Center
Tue 08:28:51 AM 42.2558 -80.6281 268° West 363 418 34,000  Level Cleveland Center
Tue 08:29:51 AM 42.2517 -80.7572 268° West 363 418 34,000  Level Cleveland Center
Tue 08:30:51 AM 42.2492 -80.8944 269° West 363 418 34,000  Level Cleveland Center
Tue 08:31:51 AM 42.2425 -81.0264 266° West 363 418 34,000  Level Cleveland Center
Tue 08:32:51 AM 42.2400 -81.1636 269° West 368 423 34,000  Level Cleveland Center
Tue 08:33:51 AM 42.2350 -81.2956 267° West 363 418 34,000  Level Cleveland Center
Tue 08:34:51 AM 42.2300 -81.4328 267° West 364 419 34,000  Level Cleveland Center
Tue 08:35:51 AM 42.2267 -81.5644 268° West 364 419 34,000  Level Cleveland Center
Tue 08:36:51 AM 42.2192 -81.6989 266° West 364 419 34,000  Level Cleveland Center
Tue 08:37:51 AM 42.2158 -81.8222 268° West 364 419 34,000  Level Cleveland Center
Tue 08:38:51 AM 42.2103 -81.9597 267° West 364 419 34,000  Level Cleveland Center
Tue 08:39:51 AM 42.2042 -82.0997 267° West 364 419 34,000  Level Cleveland Center
Tue 08:40:51 AM 42.1981 -82.2481 267° West 364 419 34,000  Level Cleveland Center
Tue 08:41:51 AM 42.1917 -82.3853 266° West 364 419 34,000  Level Cleveland Center
Tue 08:42:51 AM 42.1853 -82.5222 266° West 364 419 34,000  Level Cleveland Center
Tue 08:43:51 AM 42.1786 -82.6622 266° West 369 425 34,000  Level Cleveland Center
Tue 08:44:51 AM 42.1719 -82.7964 266° West 369 425 34,000  Level Cleveland Center
Tue 08:45:51 AM 42.1672 -82.9336 267° West 364 419 34,000  Level Cleveland Center
Tue 08:46:51 AM 42.1603 -83.0706 266° West 364 419 34,000  Level Cleveland Center
Tue 08:47:51 AM 42.1531 -83.2047 266° West 364 419 34,000  Level Cleveland Center
Tue 08:48:51 AM 42.1475 -83.3475 267° West 369 425 34,000  Level Cleveland Center
Tue 08:49:51 AM 42.1381 -83.4814 265° West 369 425 34,000  Level Cleveland Center
Tue 08:50:51 AM 42.1308 -83.6042 266° West 363 418 34,000  Level Cleveland Center
Tue 08:51:51 AM 42.1250 -83.7383 267° West 363 418 34,000  Level Cleveland Center
Tue 08:52:51 AM 42.1172 -83.8725 266° West 363 418 34,000  Level Cleveland Center
Tue 08:53:51 AM 42.1089 -84.0092 265° West 363 418 34,000  Level Cleveland Center
Tue 08:54:51 AM 42.1025 -84.1489 267° West 368 423 34,000  Level Cleveland Center
Tue 08:57:00 AM 42.0869 -84.4322 266° West 367 422 34,000  Level Chicago Center
Tue 08:58:01 AM 42.0794 -84.5681 266° West 365 420 34,000  Level Chicago Center
Tue 08:59:03 AM 42.0689 -84.7308 265° West 364 419 34,000  Level Chicago Center
Tue 09:00:05 AM 42.0606 -84.8683 265° West 368 423 34,000  Level Chicago Center
Tue 09:01:07 AM 42.0514 -85.0036 265° West 366 421 34,000  Level Chicago Center
Tue 09:02:09 AM 42.0419 -85.1397 265° West 366 421 34,000  Level Chicago Center
Tue 09:03:11 AM 42.0325 -85.2753 265° West 364 419 34,000  Level Chicago Center
Tue 09:04:13 AM 42.0231 -85.4089 265° West 361 415 34,000  Level Chicago Center
Tue 09:05:14 AM 42.0142 -85.5425 265° West 360 414 34,000  Level Chicago Center
Tue 09:06:16 AM 42.0044 -85.6878 265° West 358 412 34,000  Level Chicago Center
Tue 09:07:18 AM 41.9950 -85.8197 265° West 359 413 34,000  Level Chicago Center
Tue 09:08:20 AM 41.9844 -85.9522 264° West 360 414 34,000  Level Chicago Center
Tue 09:09:21 AM 41.9722 -86.1133 264° West 363 418 34,000  Level Chicago Center
Tue 09:10:23 AM 41.9631 -86.2478 265° West 364 419 34,000  Level Chicago Center
Tue 09:11:25 AM 41.9536 -86.3839 265° West 366 421 34,000  Level Chicago Center
Tue 09:12:27 AM 41.9422 -86.5189 264° West 366 421 34,000  Level Chicago Center
Tue 09:13:29 AM 41.9314 -86.6533 264° West 365 420 34,000  Level Chicago Center
Tue 09:14:31 AM 41.9197 -86.8069 264° West 363 418 34,000  Level Chicago Center
Tue 09:15:32 AM 41.9061 -86.9417 262° West 365 420 34,000  Level Chicago Center
Tue 09:16:34 AM 41.8958 -87.0761 264° West 363 418 34,000  Level Chicago Center
Tue 09:17:36 AM 41.8836 -87.2106 263° West 364 419 34,000  Level Chicago Center
Tue 09:18:38 AM 41.8725 -87.3447 264° West 365 420 34,000  Level Chicago Center
Tue 09:19:40 AM 41.8575 -87.5058 263° West 364 419 34,000  Level Chicago Center
Tue 09:20:41 AM 41.8461 -87.6400 264° West 366 421 34,000  Level Chicago Center
Tue 09:21:43 AM 41.8339 -87.7750 263° West 368 423 34,000  Level Chicago Center
Tue 09:22:45 AM 41.8219 -87.9092 263° West 366 421 34,000  Level Chicago Center
Tue 09:23:47 AM 41.8094 -88.0431 263° West 367 422 34,000  Level Chicago Center
Tue 09:24:49 AM 41.7944 -88.2028 263° West 365 420 34,000  Level Chicago Center
Tue 09:25:51 AM 41.7817 -88.3356 263° West 364 419 34,000  Level Chicago Center
Tue 09:26:53 AM 41.7689 -88.4683 263° West 363 418 34,000  Level Chicago Center
Tue 09:27:55 AM 41.7558 -88.6000 262° West 362 417 34,000  Level Chicago Center
Tue 09:28:56 AM 41.7422 -88.7336 262° West 364 419 34,000  Level Chicago Center
Tue 09:29:58 AM 41.7272 -88.8917 263° West 361 415 34,000  Level Chicago Center
Tue 09:31:00 AM 41.7133 -89.0242 262° West 362 417 34,000  Level Chicago Center
Tue 09:32:02 AM 41.6994 -89.1558 262° West 360 414 34,000  Level Chicago Center
Tue 09:33:04 AM 41.6867 -89.2886 263° West 362 417 34,000  Level Chicago Center
Tue 09:34:05 AM 41.6725 -89.4219 262° West 364 419 34,000  Level Chicago Center
Tue 09:35:07 AM 41.6575 -89.5719 262° West 362 417 34,000  Level Chicago Center
Tue 09:36:09 AM 41.6436 -89.7044 262° West 362 417 34,000  Level Chicago Center
Tue 09:37:11 AM 41.6289 -89.8372 262° West 362 417 34,000  Level Chicago Center
Tue 09:38:13 AM 41.6153 -89.9692 262° West 361 415 34,000  Level Chicago Center
Tue 09:39:14 AM 41.6000 -90.1017 261° West 362 417 34,000  Level Chicago Center
Tue 09:40:16 AM 41.5822 -90.2608 262° West 363 418 34,000  Level Chicago Center
Tue 09:41:18 AM 41.5661 -90.3964 261° West 367 422 34,000  Level Chicago Center
Tue 09:42:20 AM 41.5514 -90.5272 261° West 359 413 34,000  Level Chicago Center
Tue 09:43:22 AM 41.5358 -90.6561 261° West 362 417 34,000 -435 Level Chicago Center
Tue 09:44:24 AM 41.5206 -90.7933 262° West 363 418 33,100 -484 Descending Chicago Center
Tue 09:45:26 AM 41.5044 -90.9247 261° West 362 417 33,000 -537 Descending Chicago Center
Tue 09:46:27 AM 41.4847 -91.0853 261° West 367 422 32,000 -488 Descending Chicago Center
Tue 09:47:29 AM 41.4689 -91.2217 261° West 373 429 32,000  Level Chicago Center
Tue 09:48:31 AM 41.4525 -91.3525 261° West 374 430 32,000  Level Chicago Center
Tue 09:49:33 AM 41.4353 -91.4869 260° West 372 428 32,000  Level Chicago Center
Tue 09:50:35 AM 41.4192 -91.6233 261° West 373 429 32,000  Level Chicago Center
Tue 09:51:37 AM 41.3983 -91.7878 260° West 376 433 32,000  Level Chicago Center
Tue 09:52:39 AM 41.3817 -91.9231 261° West 374 430 32,000  Level Chicago Center
Tue 09:53:41 AM 41.3633 -92.0589 260° West 375 432 32,000  Level Chicago Center
Tue 09:54:43 AM 41.3461 -92.1958 261° West 375 432 32,000  Level Chicago Center
Tue 09:55:45 AM 41.3286 -92.3308 260° West 375 432 32,000  Level Chicago Center
Tue 09:56:47 AM 41.3086 -92.4747 260° West 379 436 32,000  Level Chicago Center
Tue 09:57:49 AM 41.2903 -92.6128 260° West 382 440 32,000  Level Chicago Center
Tue 09:58:16 AM 41.2797 -92.6967 261° West 381 438 32,000  Level Minneapolis Center
Tue 09:59:17 AM 41.2608 -92.8303 259° West 376 433 32,000  Level Minneapolis Center
Tue 10:00:18 AM 41.2428 -92.9658 260° West 377 434 32,000  Level Minneapolis Center
Tue 10:01:19 AM 41.2233 -93.1003 259° West 375 432 32,000  Level Minneapolis Center
Tue 10:02:21 AM 41.2050 -93.2361 260° West 377 434 32,000  Level Minneapolis Center
Tue 10:03:22 AM 41.1856 -93.3708 259° West 375 432 32,000  Level Minneapolis Center
Tue 10:04:23 AM 41.1633 -93.5300 260° West 371 427 32,000 98 Level Minneapolis Center
Tue 10:05:25 AM 41.1444 -93.6653 260° West 373 429 32,200 683 Climbing Minneapolis Center
Tue 10:06:26 AM 41.1244 -93.8028 259° West 380 437 33,400 1,131 Climbing Minneapolis Center
Tue 10:07:27 AM 41.1033 -93.9386 258° West 381 438 34,500 787 Climbing Minneapolis Center
Tue 10:08:28 AM 41.0850 -94.0744 260° West 380 437 35,000 244 Climbing Minneapolis Center
Tue 10:09:30 AM 41.0633 -94.2114 258° West 380 437 35,000  Level Minneapolis Center
Tue 10:10:31 AM 41.0436 -94.3464 259° West 379 436 35,000  Level Minneapolis Center
Tue 10:11:32 AM 41.0192 -94.5081 259° West 376 433 35,000  Level Minneapolis Center
Tue 10:12:34 AM 40.9989 -94.6397 259° West 379 436 35,000  Level Minneapolis Center
Tue 10:13:35 AM 40.9772 -94.7756 258° West 378 435 35,000 98 Level Minneapolis Center
Tue 10:14:36 AM 40.9558 -94.9114 258° West 376 433 35,200 488 Climbing Minneapolis Center
Tue 10:15:38 AM 40.9353 -95.0472 259° West 375 432 36,000 390 Climbing Minneapolis Center
Tue 10:16:39 AM 40.9136 -95.1842 258° West 377 434 36,000  Level Minneapolis Center
Tue 10:17:40 AM 40.8914 -95.3206 258° West 378 435 36,000  Level Minneapolis Center
Tue 10:18:42 AM 40.8689 -95.4594 258° West 382 440 36,000  Level Minneapolis Center
Tue 10:19:43 AM 40.8428 -95.6228 258° West 379 436 36,000  Level Minneapolis Center
Tue 10:20:45 AM 40.8206 -95.7578 258° West 376 433 36,000  Level Minneapolis Center
Tue 10:21:46 AM 40.7981 -95.8939 258° West 377 434 36,000  Level Minneapolis Center
Tue 10:22:47 AM 40.7767 -96.0297 258° West 377 434 36,000  Level Minneapolis Center
Tue 10:23:49 AM 40.7539 -96.1656 258° West 378 435 36,000  Level Minneapolis Center
Tue 10:24:50 AM 40.7303 -96.3014 257° West 378 435 36,000  Level Minneapolis Center
Tue 10:25:51 AM 40.7078 -96.4353 258° West 375 432 36,000  Level Minneapolis Center
Tue 10:26:53 AM 40.6847 -96.5711 257° West 376 433 36,000  Level Minneapolis Center
Tue 10:28:06 AM 40.6619 -96.7056 257° West 376 433 36,000  Level Minneapolis Center
Tue 10:29:08 AM 40.6347 -96.8667 257° West 377 434 36,000  Level Minneapolis Center
Tue 10:30:10 AM 40.6100 -97.0022 257° West 378 435 36,000  Level Minneapolis Center
Tue 10:31:11 AM 40.5819 -97.1639 257° West 378 435 36,000  Level Minneapolis Center
Tue 10:32:13 AM 40.5575 -97.3000 257° West 381 438 36,000  Level Minneapolis Center
Tue 10:33:14 AM 40.5322 -97.4419 257° West 378 435 36,000  Level Minneapolis Center
Tue 10:34:16 AM 40.5078 -97.5769 257° West 378 435 36,000  Level Minneapolis Center
Tue 10:35:18 AM 40.4831 -97.7108 256° West 377 434 36,000  Level Minneapolis Center
Tue 10:36:19 AM 40.4589 -97.8458 257° West 377 434 36,000  Level Minneapolis Center
Tue 10:37:21 AM 40.4342 -97.9786 256° West 375 432 36,000  Level Minneapolis Center
Tue 10:38:23 AM 40.4097 -98.1114 256° West 374 430 36,000  Level Minneapolis Center
Tue 10:39:24 AM 40.3844 -98.2447 256° West 374 430 36,000  Level Minneapolis Center
Tue 10:40:26 AM 40.3592 -98.3789 256° West 376 433 36,000  Level Minneapolis Center
Tue 10:41:28 AM 40.3339 -98.5139 256° West 378 435 36,000  Level Minneapolis Center
Tue 10:42:29 AM 40.3086 -98.6489 256° West 379 436 36,000  Level Minneapolis Center
Tue 10:43:31 AM 40.2772 -98.8106 256° West 380 437 36,000  Level Minneapolis Center
Tue 10:44:33 AM 40.2517 -98.9444 256° West 379 436 36,000  Level Minneapolis Center
Tue 10:45:34 AM 40.2253 -99.0792 256° West 380 437 36,000  Level Minneapolis Center
Tue 10:46:36 AM 40.1992 -99.2136 256° West 380 437 36,000  Level Minneapolis Center
Tue 10:47:37 AM 40.1711 -99.3483 255° West 382 440 36,000  Level Minneapolis Center
Tue 10:48:39 AM 40.1453 -99.4831 256° West 382 440 36,000  Level Minneapolis Center
Tue 10:49:53 AM 40.1194 -99.6175 256° West 381 438 36,000  Level Minneapolis Center
Tue 10:50:55 AM 40.0869 -99.7761 255° West 377 434 36,000  Level Minneapolis Center
Tue 10:51:57 AM 40.0572 -99.9183 255° West 374 430 36,000  Level Denver Center
Tue 10:52:58 AM 40.0264 -100.0678 255° West 378 435 36,000  Level Denver Center
Tue 10:54:00 AM 39.9994 -100.2000 255° West 376 433 36,000  Level Denver Center
Tue 10:55:02 AM 39.9703 -100.3411 255° West 376 433 36,000  Level Denver Center
Tue 10:56:04 AM 39.9436 -100.4661 254° West 375 432 36,000  Level Denver Center
Tue 10:57:06 AM 39.9178 -100.5908 255° West 373 429 36,000  Level Denver Center
Tue 10:58:07 AM 39.8875 -100.7331 255° West 368 423 36,000  Level Denver Center
Tue 10:59:09 AM 39.8617 -100.8569 255° West 368 423 36,000  Level Denver Center
Tue 11:00:12 AM 39.8319 -101.0019 255° West 370 426 36,000  Level Denver Center
Tue 11:01:14 AM 39.8053 -101.1228 254° West 367 422 36,000  Level Denver Center
Tue 11:02:16 AM 39.7750 -101.2639 254° West 364 419 36,000  Level Denver Center
Tue 11:03:18 AM 39.7472 -101.3881 254° West 372 428 36,000  Level Denver Center
Tue 11:04:20 AM 39.7203 -101.5094 254° West 367 422 36,000  Level Denver Center
Tue 11:05:21 AM 39.6894 -101.6522 254° West 366 421 36,000  Level Denver Center
Tue 11:06:23 AM 39.6622 -101.7742 254° West 367 422 36,000  Level Denver Center
Tue 11:07:25 AM 39.6294 -101.9192 254° West 373 429 36,000  Level Denver Center
Tue 11:08:27 AM 39.6019 -102.0433 254° West 374 430 36,000  Level Denver Center
Tue 11:09:30 AM 39.5683 -102.1881 253° West 374 430 36,000  Level Denver Center
Tue 11:10:32 AM 39.5417 -102.3139 255° West 377 434 36,000  Level Denver Center
Tue 11:11:34 AM 39.5097 -102.4458 253° West 374 430 36,000  Level Denver Center
Tue 11:12:36 AM 39.4806 -102.5778 254° West 378 435 36,000  Level Denver Center
Tue 11:13:38 AM 39.4497 -102.7081 253° West 376 433 36,000  Level Denver Center
Tue 11:14:40 AM 39.4147 -102.8600 253° West 374 430 36,000  Level Denver Center
Tue 11:15:42 AM 39.3836 -102.9914 253° West 378 435 36,000  Level Denver Center
Tue 11:16:44 AM 39.3531 -103.1228 253° West 379 436 36,000  Level Denver Center
Tue 11:17:46 AM 39.3222 -103.2547 253° West 379 436 36,000  Level Denver Center
Tue 11:18:48 AM 39.2903 -103.3869 253° West 384 442 36,000  Level Denver Center
Tue 11:19:50 AM 39.2586 -103.5200 253° West 384 442 36,000  Level Denver Center
Tue 11:20:52 AM 39.2256 -103.6539 252° West 386 444 36,000  Level Denver Center
Tue 11:21:54 AM 39.1881 -103.8108 253° West 389 448 36,000  Level Denver Center
Tue 11:22:56 AM 39.1556 -103.9464 253° West 390 449 36,000  Level Denver Center
Tue 11:23:59 AM 39.1219 -104.0817 252° West 391 450 36,000  Level Denver Center
Tue 11:25:01 AM 39.0892 -104.2161 253° West 390 449 36,000  Level Denver Center
Tue 11:26:03 AM 39.0556 -104.3503 252° West 389 448 36,000  Level Denver Center
Tue 11:27:05 AM 39.0225 -104.4833 252° West 387 445 36,000  Level Denver Center
Tue 11:28:07 AM 38.9894 -104.6167 252° West 387 445 36,000  Level Denver Center
Tue 11:29:09 AM 38.9561 -104.7469 252° West 382 440 36,000  Level Denver Center
Tue 11:30:11 AM 38.9242 -104.8769 253° West 378 435 36,000  Level Denver Center
Tue 11:31:13 AM 38.8836 -105.0322 251° West 388 447 36,000  Level Denver Center
Tue 11:32:15 AM 38.8500 -105.1642 252° West 385 443 36,000  Level Denver Center
Tue 11:33:17 AM 38.8169 -105.2942 252° West 380 437 36,000  Level Denver Center
Tue 11:34:19 AM 38.7836 -105.4239 252° West 379 436 36,000  Level Denver Center
Tue 11:35:21 AM 38.7492 -105.5539 251° West 382 440 36,000  Level Denver Center
Tue 11:36:23 AM 38.7156 -105.6847 252° West 382 440 36,000  Level Denver Center
Tue 11:37:25 AM 38.6817 -105.8122 251° West 375 432 36,000  Level Denver Center
Tue 11:38:27 AM 38.6483 -105.9375 251° West 370 426 36,000  Level Denver Center
Tue 11:39:29 AM 38.6131 -106.0708 251° West 368 423 36,000  Level Denver Center
Tue 11:40:31 AM 38.5775 -106.2042 251° West 363 418 36,000  Level Denver Center
Tue 11:41:33 AM 38.5453 -106.3256 251° West 359 413 36,000  Level Denver Center
Tue 11:42:35 AM 38.5119 -106.4483 251° West 363 418 36,000  Level Denver Center
Tue 11:43:37 AM 38.4789 -106.5711 251° West 364 419 36,000  Level Denver Center
Tue 11:44:39 AM 38.4453 -106.6922 251° West 361 415 36,000  Level Denver Center
Tue 11:45:41 AM 38.4108 -106.8183 251° West 373 429 36,000  Level Denver Center
Tue 11:46:43 AM 38.3692 -106.9700 251° West 376 433 36,000  Level Denver Center
Tue 11:47:45 AM 38.3336 -107.0981 251° West 381 438 36,000  Level Denver Center
Tue 11:48:48 AM 38.2969 -107.2322 251° West 386 444 36,000  Level Denver Center
Tue 11:49:50 AM 38.2642 -107.3517 251° West 376 433 36,000  Level Denver Center
Tue 11:50:52 AM 38.2247 -107.4922 250° West 376 433 36,000  Level Denver Center
Tue 11:51:54 AM 38.1903 -107.6119 250° West 376 433 36,000  Level Denver Center
Tue 11:52:56 AM 38.1525 -107.7475 251° West 366 421 36,000  Level Denver Center
Tue 11:53:58 AM 38.1194 -107.8639 250° West 365 420 36,000  Level Denver Center
Tue 11:55:00 AM 38.0800 -107.9994 250° West 366 421 36,000  Level Denver Center
Tue 11:56:02 AM 38.0456 -108.1222 250° West 363 418 36,000  Level Denver Center
Tue 11:57:04 AM 38.0117 -108.2375 250° West 365 420 36,000  Level Denver Center
Tue 11:58:06 AM 37.9714 -108.3742 250° West 369 425 36,000  Level Denver Center
Tue 11:59:08 AM 37.9378 -108.4917 250° West 371 427 36,000  Level Denver Center
Tue 12:00:10 PM 37.8989 -108.6256 250° West 367 422 36,000  Level Denver Center
Tue 12:01:12 PM 37.8647 -108.7394 249° West 364 419 36,000  Level Denver Center
Tue 12:02:14 PM 37.8250 -108.8778 250° West 372 428 36,000  Level Denver Center
Tue 12:03:16 PM 37.7928 -108.9908 250° West 363 418 36,000  Level Denver Center
Tue 12:04:18 PM 37.7656 -109.1081 254° West 364 419 36,000  Level Denver Center
Tue 12:05:20 PM 37.7308 -109.2433 252° West 364 419 36,000 -387 Level Denver Center
Tue 12:06:22 PM 37.7022 -109.3606 253° West 365 420 35,200 -919 Descending Denver Center
Tue 12:07:24 PM 37.6694 -109.4944 253° West 360 414 34,100 -581 Descending Denver Center
Tue 12:08:26 PM 37.6406 -109.6053 252° West 349 402 34,000 -48 Descending Denver Center
Tue 12:09:28 PM 37.6072 -109.7358 252° West 351 404 34,000  Level Denver Center
Tue 12:10:30 PM 37.5786 -109.8497 252° West 355 409 34,000  Level Denver Center
Tue 12:11:33 PM 37.5456 -109.9800 252° West 354 407 34,000  Level Denver Center
Tue 12:12:35 PM 37.5158 -110.0933 252° West 356 410 34,000  Level Denver Center
Tue 12:13:37 PM 37.4856 -110.2122 252° West 356 410 34,000  Level Denver Center
Tue 12:14:38 PM 37.4611 -110.3072 252° West 357 411 34,000  Level Denver Center
Tue 12:15:41 PM 37.4181 -110.4714 252° West 353 406 34,000  Level Denver Center
Tue 12:16:43 PM 37.3869 -110.5894 252° West 357 411 34,000  Level Denver Center
Tue 12:17:45 PM 37.3567 -110.7056 252° West 352 405 34,000 -242 Level Denver Center
Tue 12:18:47 PM 37.3261 -110.8228 252° West 353 406 33,500 -629 Descending Denver Center
Tue 12:19:49 PM 37.2950 -110.9389 251° West 352 405 32,700 -726 Descending Denver Center
Tue 12:20:51 PM 37.2644 -111.0533 251° West 348 400 32,000 -339 Descending Denver Center
Tue 12:21:53 PM 37.2278 -111.1903 251° West 345 397 32,000  Level Denver Center
Tue 12:22:55 PM 37.1975 -111.3025 251° West 342 394 32,000  Level Denver Center
Tue 12:23:57 PM 37.1669 -111.4150 251° West 341 392 32,000  Level Denver Center
Tue 12:24:59 PM 37.1381 -111.5258 252° West 337 388 32,000  Level Denver Center
Tue 12:26:01 PM 37.1081 -111.6378 251° West 337 388 32,000  Level Denver Center
Tue 12:27:03 PM 37.0772 -111.7531 251° West 345 397 32,000 -48 Level Denver Center
Tue 12:28:05 PM 37.0386 -111.8908 251° West 348 400 31,900 -581 Descending Denver Center
Tue 12:29:07 PM 37.0075 -112.0028 251° West 344 396 30,800 -968 Descending Denver Center
Tue 12:30:09 PM 36.9769 -112.1142 251° West 341 392 29,900 -909 Descending Denver Center
Tue 12:30:46 PM 36.9575 -112.1803 250° West 339 390 29,300 -970 Descending Los Angeles Center
Tue 12:31:48 PM 36.9258 -112.2914 250° West 339 390 28,300 -629 Descending Los Angeles Center
Tue 12:32:50 PM 36.8956 -112.4036 251° West 340 391 28,000 -145 Descending Los Angeles Center
Tue 12:33:52 PM 36.8719 -112.5183 256° West 341 392 28,000  Level Los Angeles Center
Tue 12:34:54 PM 36.8478 -112.6586 258° West 344 396 28,000  Level Los Angeles Center
Tue 12:35:56 PM 36.8269 -112.7728 257° West 341 392 28,000  Level Los Angeles Center
Tue 12:36:58 PM 36.8019 -112.8864 255° West 339 390 28,000  Level Los Angeles Center
Tue 12:37:59 PM 36.7742 -112.9981 253° West 339 390 28,000  Level Los Angeles Center
Tue 12:39:01 PM 36.7458 -113.1086 252° West 336 387 28,000  Level Los Angeles Center
Tue 12:40:03 PM 36.7175 -113.2197 252° West 336 387 28,000  Level Los Angeles Center
Tue 12:41:05 PM 36.6903 -113.3300 253° West 335 386 28,000  Level Los Angeles Center
Tue 12:42:07 PM 36.6558 -113.4642 252° West 337 388 28,000 -581 Level Los Angeles Center
Tue 12:43:09 PM 36.6300 -113.5708 253° West 325 374 26,800 -1,854 Descending Los Angeles Center
Tue 12:44:10 PM 36.6056 -113.6675 253° West 299 344 24,200 -2,195 Descending Los Angeles Center
Tue 12:45:12 PM 36.5800 -113.7653 252° West 298 343 22,300 -1,452 Descending Los Angeles Center
Tue 12:46:14 PM 36.5569 -113.8569 253° West 281 323 21,200 -1,016 Descending Los Angeles Center
Tue 12:47:16 PM 36.5344 -113.9433 252° West 267 307 20,200 -1,065 Descending Los Angeles Center
Tue 12:48:18 PM 36.5092 -114.0431 253° West 259 298 19,000 -1,161 Descending Los Angeles Center
Tue 12:49:20 PM 36.4875 -114.1258 252° West 254 292 17,800 -1,174 Descending Los Angeles Center
Tue 12:49:50 PM 36.4742 -114.1714 250° West 254 292 17,200 -1,258 Descending Los Angeles Center
Tue 12:50:22 PM 36.4656 -114.2103 255° West 256 295 16,500 -1,582 Descending Los Angeles Center
Tue 12:51:21 PM 36.4428 -114.3108 254° West 286 329 14,800 -1,579 Descending Los Angeles Center
Tue 12:52:16 PM 36.3975 -114.3797 231° Southwest 296 341 13,500 -1,397 Descending Los Angeles Center
Tue 12:53:17 PM 36.3244 -114.4208 204° Southwest 285 328 12,100 -1,313 Descending Los Angeles Center
Tue 12:54:24 PM 36.2461 -114.4581 201° Southwest 281 323 10,700 -879 Descending Los Angeles Center
Tue 12:55:13 PM 36.1944 -114.4972 211° Southwest 262 302 10,400 -441 Descending Los Angeles Center
Tue 12:55:32 PM 36.1839 -114.5150 234° Southwest 246 283 10,200 -896 Descending Los Angeles Center
Tue 12:56:20 PM 36.1567 -114.5711 239° Southwest 235 270 9,400 -1,111 Descending Los Angeles Center
Tue 12:57:20 PM 36.1186 -114.6428 237° Southwest 234 269 8,200 -868 Descending Los Angeles Center
Tue 12:57:36 PM 36.1197 -114.6372 76° East 234 269 8,300 -179 Climbing Los Angeles Center
Tue 12:58:27 PM 36.0789 -114.7175 238° Southwest 232 267 8,000 -566 Descending Los Angeles Center
Tue 12:59:22 PM 36.0744 -114.7856 265° West 224 258 7,300 -740 Descending Los Angeles Center
Tue 12:59:40 PM 36.0733 -114.7925 259° West 229 264 7,100 -885 Descending Los Angeles Center
Tue 01:00:23 PM 36.0736 -114.8603 270° West 219 252 6,400 -1,065 Descending Los Angeles Center
Tue 01:00:42 PM 36.0742 -114.8836 272° West 223 257 6,000 -1,279 Descending Los Angeles Center
Tue 01:01:24 PM 36.0733 -114.9375 269° West 208 239 5,100 -1,161 Descending Los Angeles Center
Tue 01:01:44 PM 36.0736 -114.9556 271° West 219 252 4,800 -984 Descending Los Angeles Center
Tue 01:02:25 PM 36.0736 -114.9986 270° West 177 204 4,100 -968 Descending Los Angeles Center
Tue 01:02:46 PM 36.0742 -115.0153 272° West 199 229 3,800 -873 Descending Los Angeles Center
Tue 01:03:20 PM 36.0739 -115.0492 269° West 157 181 3,300 -774 Descending Los Angeles Center
Tue 01:03:48 PM 36.0739 -115.0669 270° West 173 199 3,000 -911 Descending Los Angeles Center
Tue 01:04:39 PM 36.0744 -115.1208 271° West 159 183 2,100 -1,059 Descending Los Angeles Center
Tue 01:06:00 PM 36.0667 -115.1500 219° Southwest  Level FlightAware Approximate

Login

Don't have an account? Register now (free) for customized features, flight alerts, and more!